Aérodrome :
LOGIN :

S'inscrire | Disclaimer

   EN    FR    IT 

 










Légende :    VFR   VFR Marginal   IFR   IFR Intensif   IFR Très Intensif
Visi : 
Plafond : 
>= 8 km
>= 3000ft
5 à 8 km
1000 à 3000 ft
1500m à 5 km
500 à 1000 ft
800 à 1500m
200 à 500 ft
< 800m
< 200 ft
Symboles :   Orages  Brouillard  Fortes neiges  Fortes précipitations  Vent > 20 kt
SIGMETs :   Divers  Orages  Givrage  Turbulence  Onde Orograph.  Cendres Volcan.







- Altitude de l'aérodrome : 147 ft
- Code IATA : DUS


EDDL - Düsseldorf Int.

DERNIER METAR :
  • 211850Z 30008KT 8000 -RA FEW006 BKN013 12/11 Q1016 NOSIG

METARs EXPIRÉS :
  • 211820Z 28005KT 250V310 6000 -RA FEW005 BKN012 12/11 Q1015 RERA NOSIG
  • 211750Z 29007KT 4500 RA BR SCT006 BKN014 12/11 Q1015 BECMG 6000 NSW
  • 211720Z 28008KT 4500 RA BR BKN007 BKN011 12/12 Q1015 BECMG 6000 NSW
  • 211650Z 28007KT 4500 RA BR BKN007 BKN012 12/12 Q1015 BECMG 6000 NSW
  • 211620Z 28008KT 6000 -RA SCT008 BKN011 12/11 Q1015 NOSIG

TAF TAF EDDL
Valide du 21 à 18h jusqu'au 23 à 00h UTC


211700Z 2118/2224 30008KT 6000 SCT007 BKN012
TEMPO 2118/2201 4000 -RA BR BKN007
TEMPO 2201/2208 2500 -DZRA BKN006
BECMG 2208/2211 BKN035
BECMG 2220/2223 VRB03KT
Pas de NOTAMs connus pour ce terrain.



MET'MAP, la Météo Aéronautique d'un coup d'oeil ! - Copyright ORBIFLY Décembre 2007 - Disclaimer

ORBIFLY MET'MAP TEAM :

Programmation & Développement : Alexandra Zaïnal
Conception & Développement : Baudouin d'Aumeries
Co-Programmation & Développement : Marc-Olivier Méhu
Soutien technique & logistique : Manuel Goepfert

Contact : metmap@orbifly.com




SOURCES & CREDITS :

   NOAA